Temp: 17.0°C   Baro: 1010.5mb
  Wind: 6.0mph   Dir: WNW (289°)
  Rain: 0.8mm (0.0mm/hr)
  Solar: 97W/m2  Hum: 91%
 
Bath Spa Weather Station Historical Data
Daily Summary for June 16, 2019 Units:  Both    English   Metric
Daily Weekly Monthly Yearly Custom
  High: Low: Average:
Temperature: 80.8 °F /  27.1 °C 53.1 °F /  11.7 °C 65.9 °F /  18.8 °C
Dew Point: 58.3 °F /  14.6 °C 48.9 °F /  9.4 °C 53.5 °F /  11.9 °C
Humidity: 87% 41% 67%
Wind Speed: 11mph /  17.7km/h - 1.7mph /  2.7km/h
Wind Gust: 11mph /  17.7km/h - -
Wind- - SW
Pressure: 30.14 in /  1020.5 hPa 30.02 in /  1016.5 hPa -
Precipitation: 0.00 in /  0 mm    
Historical Graphs
 
 
Tabular Data for June 16, 2019
Time Temperature Dew Point Pressure Wind Wind Speed Wind Gust Humidity Rainfall Rate (Hourly) solar
00:04 59.9 °F /  15.5 °C 52.3 °F /  11.3 °C 30.14in /  1020.5hPa Calm     76% 0.00in /  0mm 0 W/m2
00:09 59.5 °F /  15.3 °C 52 °F /  11.1 °C 30.14in /  1020.5hPa Calm   1mph /  1.6km/h 76% 0.00in /  0mm 0 W/m2
00:14 59.4 °F /  15.2 °C 51.8 °F /  11 °C 30.14in /  1020.5hPa Calm     76% 0.00in /  0mm 0 W/m2
00:19 59 °F /  15 °C 51.8 °F /  11 °C 30.14in /  1020.5hPa Calm   1mph /  1.6km/h 77% 0.00in /  0mm 0 W/m2
00:24 58.8 °F /  14.9 °C 52 °F /  11.1 °C 30.14in /  1020.5hPa SW 0.9mph /  1.4km/h 1mph /  1.6km/h 78% 0.00in /  0mm 0 W/m2
00:29 58.5 °F /  14.7 °C 51.6 °F /  10.9 °C 30.14in /  1020.5hPa Calm     78% 0.00in /  0mm 0 W/m2
00:34 58.1 °F /  14.5 °C 51.6 °F /  10.9 °C 30.14in /  1020.5hPa Calm     79% 0.00in /  0mm 0 W/m2
00:39 57.7 °F /  14.3 °C 51.3 °F /  10.7 °C 30.14in /  1020.5hPa Calm     79% 0.00in /  0mm 0 W/m2
00:44 57.2 °F /  14 °C 51.1 °F /  10.6 °C 30.14in /  1020.5hPa SW 0.9mph /  1.4km/h 2mph /  3.2km/h 80% 0.00in /  0mm 0 W/m2
00:49 57 °F /  13.9 °C 51.3 °F /  10.7 °C 30.14in /  1020.5hPa Calm   1mph /  1.6km/h 81% 0.00in /  0mm 0 W/m2
00:54 56.8 °F /  13.8 °C 51.1 °F /  10.6 °C 30.14in /  1020.5hPa SW 0.9mph /  1.4km/h 2mph /  3.2km/h 81% 0.00in /  0mm 0 W/m2
00:59 57 °F /  13.9 °C 51.6 °F /  10.9 °C 30.14in /  1020.5hPa Calm   1mph /  1.6km/h 82% 0.00in /  0mm 0 W/m2
01:04 56.8 °F /  13.8 °C 51.4 °F /  10.8 °C 30.14in /  1020.5hPa SW 0.9mph /  1.4km/h 1mph /  1.6km/h 82% 0.00in /  0mm 0 W/m2
01:09 56.8 °F /  13.8 °C 51.4 °F /  10.8 °C 30.14in /  1020.5hPa Calm     82% 0.00in /  0mm 0 W/m2
01:14 57 °F /  13.9 °C 51.6 °F /  10.9 °C 30.14in /  1020.5hPa Calm     82% 0.00in /  0mm 0 W/m2
01:19 57 °F /  13.9 °C 51.6 °F /  10.9 °C 30.14in /  1020.5hPa SW 2mph /  3.2km/h 2mph /  3.2km/h 82% 0.00in /  0mm 0 W/m2
01:24 57 °F /  13.9 °C 51.6 °F /  10.9 °C 30.14in /  1020.5hPa Calm     82% 0.00in /  0mm 0 W/m2
01:29 57 °F /  13.9 °C 51.6 °F /  10.9 °C 30.14in /  1020.5hPa Calm   1mph /  1.6km/h 82% 0.00in /  0mm 0 W/m2
01:34 56.8 °F /  13.8 °C 51.4 °F /  10.8 °C 30.14in /  1020.5hPa Calm     82% 0.00in /  0mm 0 W/m2
01:39 56.7 °F /  13.7 °C 51.3 °F /  10.7 °C 30.14in /  1020.5hPa Calm   1mph /  1.6km/h 82% 0.00in /  0mm 0 W/m2
01:44 56.5 °F /  13.6 °C 51.1 °F /  10.6 °C 30.14in /  1020.5hPa SW 4mph /  6.4km/h 4mph /  6.4km/h 82% 0.00in /  0mm 0 W/m2
01:49 56.3 °F /  13.5 °C 50.9 °F /  10.5 °C 30.14in /  1020.5hPa Calm     82% 0.00in /  0mm 0 W/m2
01:54 56.3 °F /  13.5 °C 51.3 °F /  10.7 °C 30.14in /  1020.5hPa Calm     83% 0.00in /  0mm 0 W/m2
01:59 56.1 °F /  13.4 °C 51.1 °F /  10.6 °C 30.14in /  1020.5hPa Calm     83% 0.00in /  0mm 0 W/m2
02:04 56.1 °F /  13.4 °C 51.1 °F /  10.6 °C 30.14in /  1020.5hPa Calm   3mph /  4.8km/h 83% 0.00in /  0mm 0 W/m2
02:09 55.9 °F /  13.3 °C 50.9 °F /  10.5 °C 30.13in /  1020.2hPa SW 2mph /  3.2km/h 2mph /  3.2km/h 83% 0.00in /  0mm 0 W/m2
02:14 55.8 °F /  13.2 °C 50.7 °F /  10.4 °C 30.13in /  1020.2hPa SW 0.9mph /  1.4km/h 3mph /  4.8km/h 83% 0.00in /  0mm 0 W/m2
02:19 55.6 °F /  13.1 °C 50.5 °F /  10.3 °C 30.13in /  1020.2hPa Calm   1mph /  1.6km/h 83% 0.00in /  0mm 0 W/m2
02:24 55.6 °F /  13.1 °C 50.9 °F /  10.5 °C 30.13in /  1020.2hPa Calm   2mph /  3.2km/h 84% 0.00in /  0mm 0 W/m2
02:29 55.6 °F /  13.1 °C 50.9 °F /  10.5 °C 30.13in /  1020.2hPa Calm     84% 0.00in /  0mm 0 W/m2
02:34 55.2 °F /  12.9 °C 50.5 °F /  10.3 °C 30.13in /  1020.2hPa Calm     84% 0.00in /  0mm 0 W/m2
02:39 55.2 °F /  12.9 °C 50.5 °F /  10.3 °C 30.13in /  1020.2hPa Calm   1mph /  1.6km/h 84% 0.00in /  0mm 0 W/m2
02:44 55 °F /  12.8 °C 50.4 °F /  10.2 °C 30.13in /  1020.2hPa Calm   1mph /  1.6km/h 84% 0.00in /  0mm 0 W/m2
02:49 55 °F /  12.8 °C 50.4 °F /  10.2 °C 30.13in /  1020.2hPa Calm     84% 0.00in /  0mm 0 W/m2
02:54 55.2 °F /  12.9 °C 50.7 °F /  10.4 °C 30.13in /  1020.2hPa Calm     85% 0.00in /  0mm 0 W/m2
02:59 55 °F /  12.8 °C 50.4 °F /  10.2 °C 30.13in /  1020.2hPa Calm     84% 0.00in /  0mm 0 W/m2
03:04 55.2 °F /  12.9 °C 50.7 °F /  10.4 °C 30.13in /  1020.2hPa Calm     85% 0.00in /  0mm 0 W/m2
03:09 55.2 °F /  12.9 °C 50.7 °F /  10.4 °C 30.12in /  1019.9hPa Calm     85% 0.00in /  0mm 0 W/m2
03:14 55.2 °F /  12.9 °C 50.7 °F /  10.4 °C 30.12in /  1019.9hPa Calm     85% 0.00in /  0mm 0 W/m2
03:19 55.2 °F /  12.9 °C 50.7 °F /  10.4 °C 30.12in /  1019.9hPa Calm     85% 0.00in /  0mm 0 W/m2
03:24 55.2 °F /  12.9 °C 50.7 °F /  10.4 °C 30.12in /  1019.9hPa Calm     85% 0.00in /  0mm 0 W/m2
03:29 55.2 °F /  12.9 °C 50.7 °F /  10.4 °C 30.12in /  1019.9hPa Calm     85% 0.00in /  0mm 0 W/m2
03:34 55.2 °F /  12.9 °C 50.7 °F /  10.4 °C 30.12in /  1019.9hPa Calm     85% 0.00in /  0mm 0 W/m2
03:39 55.2 °F /  12.9 °C 50.5 °F /  10.3 °C 30.12in /  1019.9hPa Calm     84% 0.00in /  0mm 0 W/m2
03:44 55.2 °F /  12.9 °C 50.5 °F /  10.3 °C 30.12in /  1019.9hPa Calm     84% 0.00in /  0mm 0 W/m2
03:49 55 °F /  12.8 °C 50.4 °F /  10.2 °C 30.12in /  1019.9hPa Calm     84% 0.00in /  0mm 0 W/m2
03:54 55 °F /  12.8 °C 50.4 °F /  10.2 °C 30.12in /  1019.9hPa Calm     84% 0.00in /  0mm 0 W/m2
03:59 55 °F /  12.8 °C 50.4 °F /  10.2 °C 30.12in /  1019.9hPa Calm     84% 0.00in /  0mm 0 W/m2
04:04 54.9 °F /  12.7 °C 50.2 °F /  10.1 °C 30.12in /  1019.9hPa Calm     84% 0.00in /  0mm 0 W/m2
04:09 54.9 °F /  12.7 °C 50.2 °F /  10.1 °C 30.12in /  1019.9hPa Calm     84% 0.00in /  0mm 0 W/m2
04:14 54.9 °F /  12.7 °C 50.4 °F /  10.2 °C 30.12in /  1019.9hPa Calm     85% 0.00in /  0mm 0 W/m2
04:19 54.9 °F /  12.7 °C 50.4 °F /  10.2 °C 30.12in /  1019.9hPa Calm     85% 0.00in /  0mm 0 W/m2
04:24 54.9 °F /  12.7 °C 50.4 °F /  10.2 °C 30.12in /  1019.9hPa Calm     85% 0.00in /  0mm 0 W/m2
04:29 54.9 °F /  12.7 °C 50.2 °F /  10.1 °C 30.12in /  1019.9hPa Calm     84% 0.00in /  0mm 0 W/m2
04:34 54.9 °F /  12.7 °C 50.2 °F /  10.1 °C 30.12in /  1019.9hPa Calm     84% 0.00in /  0mm 0 W/m2
04:39 54.9 °F /  12.7 °C 50.2 °F /  10.1 °C 30.12in /  1019.9hPa Calm     84% 0.00in /  0mm 0 W/m2
04:44 54.5 °F /  12.5 °C 49.8 °F /  9.9 °C 30.12in /  1019.9hPa Calm     84% 0.00in /  0mm 0 W/m2
04:49 54.3 °F /  12.4 °C 49.6 °F /  9.8 °C 30.12in /  1019.9hPa Calm     84% 0.00in /  0mm 0 W/m2
04:54 54.3 °F /  12.4 °C 49.8 °F /  9.9 °C 30.12in /  1019.9hPa Calm     85% 0.00in /  0mm 0 W/m2
04:59 54.1 °F /  12.3 °C 49.8 °F /  9.9 °C 30.12in /  1019.9hPa Calm     85% 0.00in /  0mm 0 W/m2
05:04 54.1 °F /  12.3 °C 49.8 °F /  9.9 °C 30.12in /  1019.9hPa Calm     85% 0.00in /  0mm 0 W/m2
05:09 54 °F /  12.2 °C 49.6 °F /  9.8 °C 30.12in /  1019.9hPa Calm     85% 0.00in /  0mm 0 W/m2
05:14 53.8 °F /  12.1 °C 49.5 °F /  9.7 °C 30.12in /  1019.9hPa Calm     85% 0.00in /  0mm 0 W/m2
05:19 53.6 °F /  12 °C 49.3 °F /  9.6 °C 30.12in /  1019.9hPa Calm     85% 0.00in /  0mm 5 W/m2
05:24 53.6 °F /  12 °C 49.3 °F /  9.6 °C 30.12in /  1019.9hPa Calm     85% 0.00in /  0mm 7 W/m2
05:29 53.6 °F /  12 °C 49.3 °F /  9.6 °C 30.12in /  1019.9hPa Calm     85% 0.00in /  0mm 9 W/m2
05:34 53.4 °F /  11.9 °C 49.1 °F /  9.5 °C 30.12in /  1019.9hPa Calm     85% 0.00in /  0mm 11 W/m2
05:39 53.2 °F /  11.8 °C 49.1 °F /  9.5 °C 30.12in /  1019.9hPa Calm     86% 0.00in /  0mm 12 W/m2
05:44 53.2 °F /  11.8 °C 49.1 °F /  9.5 °C 30.12in /  1019.9hPa Calm     86% 0.00in /  0mm 14 W/m2
05:49 53.2 °F /  11.8 °C 49.1 °F /  9.5 °C 30.12in /  1019.9hPa Calm     86% 0.00in /  0mm 18 W/m2
05:54 53.2 °F /  11.8 °C 49.1 °F /  9.5 °C 30.12in /  1019.9hPa Calm     86% 0.00in /  0mm 23 W/m2
05:59 53.2 °F /  11.8 °C 49.1 °F /  9.5 °C 30.12in /  1019.9hPa Calm     86% 0.00in /  0mm 26 W/m2
06:04 53.1 °F /  11.7 °C 48.9 °F /  9.4 °C 30.12in /  1019.9hPa Calm     86% 0.00in /  0mm 28 W/m2
06:09 53.2 °F /  11.8 °C 49.1 °F /  9.5 °C 30.12in /  1019.9hPa Calm     86% 0.00in /  0mm 30 W/m2
06:14 53.2 °F /  11.8 °C 49.1 °F /  9.5 °C 30.12in /  1019.9hPa Calm     86% 0.00in /  0mm 32 W/m2
06:19 53.4 °F /  11.9 °C 49.6 °F /  9.8 °C 30.12in /  1019.9hPa Calm     87% 0.00in /  0mm 35 W/m2
06:24 53.6 °F /  12 °C 49.5 °F /  9.7 °C 30.12in /  1019.9hPa Calm   1mph /  1.6km/h 86% 0.00in /  0mm 37 W/m2
06:29 53.8 °F /  12.1 °C 49.6 °F /  9.8 °C 30.12in /  1019.9hPa Calm     86% 0.00in /  0mm 39 W/m2
06:34 53.8 °F /  12.1 °C 49.6 °F /  9.8 °C 30.12in /  1019.9hPa Calm     86% 0.00in /  0mm 42 W/m2
06:39 54 °F /  12.2 °C 49.8 °F /  9.9 °C 30.12in /  1019.9hPa Calm     86% 0.00in /  0mm 46 W/m2
06:44 54.1 °F /  12.3 °C 50 °F /  10 °C 30.12in /  1019.9hPa WSW 1mph /  1.6km/h 1mph /  1.6km/h 86% 0.00in /  0mm 51 W/m2
06:49 54.1 °F /  12.3 °C 50 °F /  10 °C 30.12in /  1019.9hPa Calm     86% 0.00in /  0mm 60 W/m2
06:54 54.3 °F /  12.4 °C 50.2 °F /  10.1 °C 30.12in /  1019.9hPa Calm     86% 0.00in /  0mm 70 W/m2
06:59 54.7 °F /  12.6 °C 50.5 °F /  10.3 °C 30.12in /  1019.9hPa Calm     86% 0.00in /  0mm 81 W/m2
07:04 55.4 °F /  13 °C 51.3 °F /  10.7 °C 30.12in /  1019.9hPa Calm   1mph /  1.6km/h 86% 0.00in /  0mm 95 W/m2
07:09 56.3 °F /  13.5 °C 52.2 °F /  11.2 °C 30.12in /  1019.9hPa Calm   1mph /  1.6km/h 86% 0.00in /  0mm 105 W/m2
07:14 57 °F /  13.9 °C 52.5 °F /  11.4 °C 30.12in /  1019.9hPa Calm     85% 0.00in /  0mm 120 W/m2
07:19 57.7 °F /  14.3 °C 52.9 °F /  11.6 °C 30.12in /  1019.9hPa Calm   1mph /  1.6km/h 84% 0.00in /  0mm 135 W/m2
07:24 58.3 °F /  14.6 °C 53.1 °F /  11.7 °C 30.12in /  1019.9hPa Calm     83% 0.00in /  0mm 151 W/m2
07:29 59 °F /  15 °C 53.6 °F /  12 °C 30.12in /  1019.9hPa Calm     82% 0.00in /  0mm 167 W/m2
07:34 59.5 °F /  15.3 °C 53.4 °F /  11.9 °C 30.12in /  1019.9hPa Calm   1mph /  1.6km/h 80% 0.00in /  0mm 183 W/m2
07:39 59.2 °F /  15.1 °C 52.3 °F /  11.3 °C 30.12in /  1019.9hPa Calm   1mph /  1.6km/h 78% 0.00in /  0mm 197 W/m2
07:44 59.4 °F /  15.2 °C 52.2 °F /  11.2 °C 30.12in /  1019.9hPa Calm   1mph /  1.6km/h 77% 0.00in /  0mm 209 W/m2
07:49 59.7 °F /  15.4 °C 52.5 °F /  11.4 °C 30.12in /  1019.9hPa Calm     77% 0.00in /  0mm 223 W/m2
07:54 59.7 °F /  15.4 °C 52.2 °F /  11.2 °C 30.12in /  1019.9hPa Calm     76% 0.00in /  0mm 239 W/m2
07:59 59.9 °F /  15.5 °C 52.3 °F /  11.3 °C 30.12in /  1019.9hPa WSW 0.9mph /  1.4km/h 2mph /  3.2km/h 76% 0.00in /  0mm 251 W/m2
08:04 59.9 °F /  15.5 °C 52 °F /  11.1 °C 30.12in /  1019.9hPa Calm   1mph /  1.6km/h 75% 0.00in /  0mm 267 W/m2
08:09 60.4 °F /  15.8 °C 52.5 °F /  11.4 °C 30.12in /  1019.9hPa Calm     75% 0.00in /  0mm 285 W/m2
08:14 60.8 °F /  16 °C 52.9 °F /  11.6 °C 30.12in /  1019.9hPa Calm   1mph /  1.6km/h 75% 0.00in /  0mm 297 W/m2
08:19 61 °F /  16.1 °C 52.7 °F /  11.5 °C 30.11in /  1019.5hPa Calm   3mph /  4.8km/h 74% 0.00in /  0mm 315 W/m2
08:24 61 °F /  16.1 °C 52.7 °F /  11.5 °C 30.11in /  1019.5hPa Calm   2mph /  3.2km/h 74% 0.00in /  0mm 327 W/m2
08:29 61.3 °F /  16.3 °C 53.1 °F /  11.7 °C 30.11in /  1019.5hPa SW 7mph /  11.3km/h 7mph /  11.3km/h 74% 0.00in /  0mm 345 W/m2
08:34 61.5 °F /  16.4 °C 53.2 °F /  11.8 °C 30.11in /  1019.5hPa Calm   2mph /  3.2km/h 74% 0.00in /  0mm 360 W/m2
08:39 61.9 °F /  16.6 °C 53.1 °F /  11.7 °C 30.11in /  1019.5hPa SSW 2.9mph /  4.7km/h 4mph /  6.4km/h 73% 0.00in /  0mm 376 W/m2
08:44 62.1 °F /  16.7 °C 53.2 °F /  11.8 °C 30.11in /  1019.5hPa SSW 2.9mph /  4.7km/h 5mph /  8km/h 73% 0.00in /  0mm 390 W/m2
08:49 62.2 °F /  16.8 °C 53.4 °F /  11.9 °C 30.11in /  1019.5hPa Calm   3mph /  4.8km/h 73% 0.00in /  0mm 404 W/m2
08:54 63.1 °F /  17.3 °C 54 °F /  12.2 °C 30.11in /  1019.5hPa SSW 2mph /  3.2km/h 3mph /  4.8km/h 72% 0.00in /  0mm 417 W/m2
08:59 63.3 °F /  17.4 °C 54.1 °F /  12.3 °C 30.11in /  1019.5hPa SSW 2mph /  3.2km/h 2mph /  3.2km/h 72% 0.00in /  0mm 432 W/m2
09:04 63.1 °F /  17.3 °C 53.6 °F /  12 °C 30.11in /  1019.5hPa SSW 4mph /  6.4km/h 4mph /  6.4km/h 71% 0.00in /  0mm 445 W/m2
09:09 63.3 °F /  17.4 °C 54.1 °F /  12.3 °C 30.11in /  1019.5hPa SSW 2.9mph /  4.7km/h 4mph /  6.4km/h 72% 0.00in /  0mm 459 W/m2
09:14 64.4 °F /  18 °C 54.9 °F /  12.7 °C 30.11in /  1019.5hPa Calm   2mph /  3.2km/h 71% 0.00in /  0mm 471 W/m2
09:19 64.4 °F /  18 °C 54.3 °F /  12.4 °C 30.11in /  1019.5hPa WSW 2mph /  3.2km/h 5mph /  8km/h 70% 0.00in /  0mm 483 W/m2
09:24 65.1 °F /  18.4 °C 55 °F /  12.8 °C 30.11in /  1019.5hPa WSW 0.9mph /  1.4km/h 4mph /  6.4km/h 70% 0.00in /  0mm 496 W/m2
09:29 65.1 °F /  18.4 °C 54.7 °F /  12.6 °C 30.11in /  1019.5hPa WSW 2.9mph /  4.7km/h 5mph /  8km/h 69% 0.00in /  0mm 506 W/m2
09:34 65.7 °F /  18.7 °C 55.2 °F /  12.9 °C 30.11in /  1019.5hPa WSW 0.9mph /  1.4km/h 2mph /  3.2km/h 69% 0.00in /  0mm 519 W/m2
09:39 65.5 °F /  18.6 °C 55 °F /  12.8 °C 30.11in /  1019.5hPa West 4.9mph /  7.9km/h 5mph /  8km/h 69% 0.00in /  0mm 531 W/m2
09:44 65.8 °F /  18.8 °C 55.4 °F /  13 °C 30.11in /  1019.5hPa West 2.9mph /  4.7km/h 5mph /  8km/h 69% 0.00in /  0mm 540 W/m2
09:49 66.2 °F /  19 °C 55.8 °F /  13.2 °C 30.11in /  1019.5hPa Calm   1mph /  1.6km/h 69% 0.00in /  0mm 550 W/m2
09:54 66.6 °F /  19.2 °C 55.2 °F /  12.9 °C 30.10in /  1019.2hPa West 0.9mph /  1.4km/h 4mph /  6.4km/h 67% 0.00in /  0mm 564 W/m2
09:59 66.6 °F /  19.2 °C 55.6 °F /  13.1 °C 30.10in /  1019.2hPa Calm   2mph /  3.2km/h 68% 0.00in /  0mm 577 W/m2
10:04 66.9 °F /  19.4 °C 55.2 °F /  12.9 °C 30.10in /  1019.2hPa Calm   2mph /  3.2km/h 66% 0.00in /  0mm 582 W/m2
10:09 66.9 °F /  19.4 °C 55.2 °F /  12.9 °C 30.10in /  1019.2hPa WSW 0.9mph /  1.4km/h 4mph /  6.4km/h 66% 0.00in /  0mm 601 W/m2
10:14 66.9 °F /  19.4 °C 54.9 °F /  12.7 °C 30.10in /  1019.2hPa WSW 2.9mph /  4.7km/h 6mph /  9.7km/h 65% 0.00in /  0mm 621 W/m2
10:19 67.6 °F /  19.8 °C 55.4 °F /  13 °C 30.10in /  1019.2hPa WSW 2mph /  3.2km/h 2mph /  3.2km/h 65% 0.00in /  0mm 622 W/m2
10:24 67.6 °F /  19.8 °C 55.4 °F /  13 °C 30.10in /  1019.2hPa WSW 0.9mph /  1.4km/h 2mph /  3.2km/h 65% 0.00in /  0mm 668 W/m2
10:29 68.4 °F /  20.2 °C 55.2 °F /  12.9 °C 30.10in /  1019.2hPa West 2.9mph /  4.7km/h 4mph /  6.4km/h 63% 0.00in /  0mm 153 W/m2
10:34 67.6 °F /  19.8 °C 56.3 °F /  13.5 °C 30.10in /  1019.2hPa West 2.9mph /  4.7km/h 6mph /  9.7km/h 67% 0.00in /  0mm 540 W/m2
10:39 67.5 °F /  19.7 °C 57 °F /  13.9 °C 30.10in /  1019.2hPa West 2mph /  3.2km/h 3mph /  4.8km/h 69% 0.00in /  0mm 712 W/m2
10:44 68.2 °F /  20.1 °C 57.2 °F /  14 °C 30.09in /  1018.8hPa West 0.9mph /  1.4km/h 4mph /  6.4km/h 68% 0.00in /  0mm 751 W/m2
10:49 69.1 °F /  20.6 °C 57.2 °F /  14 °C 30.09in /  1018.8hPa West 2.9mph /  4.7km/h 7mph /  11.3km/h 66% 0.00in /  0mm 735 W/m2
10:54 68.7 °F /  20.4 °C 56.5 °F /  13.6 °C 30.09in /  1018.8hPa West 4mph /  6.4km/h 4mph /  6.4km/h 65% 0.00in /  0mm 756 W/m2
10:59 70.2 °F /  21.2 °C 57.9 °F /  14.4 °C 30.09in /  1018.8hPa West 2mph /  3.2km/h 2mph /  3.2km/h 65% 0.00in /  0mm 780 W/m2
11:04 71.6 °F /  22 °C 56.5 °F /  13.6 °C 30.09in /  1018.8hPa NNE 2.9mph /  4.7km/h 5mph /  8km/h 59% 0.00in /  0mm 789 W/m2
11:09 72.3 °F /  22.4 °C 57.2 °F /  14 °C 30.09in /  1018.8hPa NNE 0.9mph /  1.4km/h 2mph /  3.2km/h 59% 0.00in /  0mm 782 W/m2
11:14 72.3 °F /  22.4 °C 56.7 °F /  13.7 °C 30.09in /  1018.8hPa Calm   4mph /  6.4km/h 58% 0.00in /  0mm 793 W/m2
11:19 71.1 °F /  21.7 °C 55.9 °F /  13.3 °C 30.09in /  1018.8hPa SSE 0.9mph /  1.4km/h 7mph /  11.3km/h 59% 0.00in /  0mm 800 W/m2
11:24 71.1 °F /  21.7 °C 55.6 °F /  13.1 °C 30.09in /  1018.8hPa SSE 4mph /  6.4km/h 4mph /  6.4km/h 58% 0.00in /  0mm 803 W/m2
11:29 70.5 °F /  21.4 °C 55.6 °F /  13.1 °C 30.09in /  1018.8hPa South 4.9mph /  7.9km/h 5mph /  8km/h 59% 0.00in /  0mm 795 W/m2
11:34 71.1 °F /  21.7 °C 55.6 °F /  13.1 °C 30.09in /  1018.8hPa South 0.9mph /  1.4km/h 4mph /  6.4km/h 58% 0.00in /  0mm 807 W/m2
11:39 72.5 °F /  22.5 °C 54.3 °F /  12.4 °C 30.09in /  1018.8hPa Calm   6mph /  9.7km/h 53% 0.00in /  0mm 824 W/m2
11:44 74.8 °F /  23.8 °C 55 °F /  12.8 °C 30.09in /  1018.8hPa SE 0.9mph /  1.4km/h 5mph /  8km/h 50% 0.00in /  0mm 828 W/m2
11:49 75.4 °F /  24.1 °C 55.4 °F /  13 °C 30.09in /  1018.8hPa SE 2mph /  3.2km/h 4mph /  6.4km/h 50% 0.00in /  0mm 844 W/m2
11:54 73 °F /  22.8 °C 55.4 °F /  13 °C 30.09in /  1018.8hPa South 2.9mph /  4.7km/h 4mph /  6.4km/h 54% 0.00in /  0mm 846 W/m2
11:59 72.5 °F /  22.5 °C 54.3 °F /  12.4 °C 30.09in /  1018.8hPa South 2mph /  3.2km/h 5mph /  8km/h 53% 0.00in /  0mm 847 W/m2
12:04 73 °F /  22.8 °C 55.4 °F /  13 °C 30.09in /  1018.8hPa South 2mph /  3.2km/h 5mph /  8km/h 54% 0.00in /  0mm 863 W/m2
12:09 76.1 °F /  24.5 °C 55.6 °F /  13.1 °C 30.09in /  1018.8hPa Calm   5mph /  8km/h 49% 0.00in /  0mm 861 W/m2
12:14 75.4 °F /  24.1 °C 54.9 °F /  12.7 °C 30.09in /  1018.8hPa SE 2mph /  3.2km/h 4mph /  6.4km/h 49% 0.00in /  0mm 891 W/m2
12:19 74.3 °F /  23.5 °C 54 °F /  12.2 °C 30.08in /  1018.5hPa Calm   2mph /  3.2km/h 49% 0.00in /  0mm 886 W/m2
12:24 73.4 °F /  23 °C 53.6 °F /  12 °C 30.08in /  1018.5hPa ESE 0.9mph /  1.4km/h 7mph /  11.3km/h 50% 0.00in /  0mm 898 W/m2
12:29 77 °F /  25 °C 54 °F /  12.2 °C 30.09in /  1018.8hPa East 0.9mph /  1.4km/h 6mph /  9.7km/h 45% 0.00in /  0mm 909 W/m2
12:34 75.6 °F /  24.2 °C 54 °F /  12.2 °C 30.08in /  1018.5hPa ENE 0.9mph /  1.4km/h 2mph /  3.2km/h 47% 0.00in /  0mm 921 W/m2
12:39 76.6 °F /  24.8 °C 54.3 °F /  12.4 °C 30.08in /  1018.5hPa NNE 4.9mph /  7.9km/h 8mph /  12.9km/h 46% 0.00in /  0mm 905 W/m2
12:44 73.9 °F /  23.3 °C 53.6 °F /  12 °C 30.08in /  1018.5hPa North 2mph /  3.2km/h 4mph /  6.4km/h 49% 0.00in /  0mm 846 W/m2
12:49 74.5 °F /  23.6 °C 54.1 °F /  12.3 °C 30.08in /  1018.5hPa North 0.9mph /  1.4km/h 3mph /  4.8km/h 49% 0.00in /  0mm 202 W/m2
12:54 73.9 °F /  23.3 °C 54.7 °F /  12.6 °C 30.08in /  1018.5hPa North 2.9mph /  4.7km/h 3mph /  4.8km/h 51% 0.00in /  0mm 216 W/m2
12:59 73.4 °F /  23 °C 53.1 °F /  11.7 °C 30.07in /  1018.2hPa North 2mph /  3.2km/h 3mph /  4.8km/h 49% 0.00in /  0mm 160 W/m2
13:04 72.9 °F /  22.7 °C 52.5 °F /  11.4 °C 30.07in /  1018.2hPa SSE 0.9mph /  1.4km/h 4mph /  6.4km/h 49% 0.00in /  0mm 204 W/m2
13:09 72.9 °F /  22.7 °C 52.5 °F /  11.4 °C 30.07in /  1018.2hPa South 0.9mph /  1.4km/h 4mph /  6.4km/h 49% 0.00in /  0mm 909 W/m2
13:14 73.4 °F /  23 °C 53.1 °F /  11.7 °C 30.07in /  1018.2hPa SSE 6mph /  9.7km/h 7mph /  11.3km/h 49% 0.00in /  0mm 896 W/m2
13:19 72.9 °F /  22.7 °C 52 °F /  11.1 °C 30.07in /  1018.2hPa SSE 0.9mph /  1.4km/h 5mph /  8km/h 48% 0.00in /  0mm 891 W/m2
13:24 74.7 °F /  23.7 °C 53.6 °F /  12 °C 30.07in /  1018.2hPa Calm   2mph /  3.2km/h 48% 0.00in /  0mm 914 W/m2
13:29 76.8 °F /  24.9 °C 53.8 °F /  12.1 °C 30.07in /  1018.2hPa NE 8mph /  12.9km/h 8mph /  12.9km/h 45% 0.00in /  0mm 900 W/m2
13:34 76.8 °F /  24.9 °C 53.2 °F /  11.8 °C 30.07in /  1018.2hPa ESE 4mph /  6.4km/h 5mph /  8km/h 44% 0.00in /  0mm 882 W/m2
13:39 75.2 °F /  24 °C 51.1 °F /  10.6 °C 30.06in /  1017.8hPa SW 4mph /  6.4km/h 7mph /  11.3km/h 43% 0.00in /  0mm 881 W/m2
13:44 74.5 °F /  23.6 °C 51.8 °F /  11 °C 30.06in /  1017.8hPa West 6mph /  9.7km/h 7mph /  11.3km/h 45% 0.00in /  0mm 867 W/m2
13:49 74.8 °F /  23.8 °C 51.4 °F /  10.8 °C 30.06in /  1017.8hPa South 2.9mph /  4.7km/h 6mph /  9.7km/h 44% 0.00in /  0mm 877 W/m2
13:54 74.8 °F /  23.8 °C 52.7 °F /  11.5 °C 30.06in /  1017.8hPa Calm   4mph /  6.4km/h 46% 0.00in /  0mm 867 W/m2
13:59 75.2 °F /  24 °C 52.3 °F /  11.3 °C 30.06in /  1017.8hPa SSE 0.9mph /  1.4km/h 7mph /  11.3km/h 45% 0.00in /  0mm 888 W/m2
14:04 76.1 °F /  24.5 °C 52.5 °F /  11.4 °C 30.06in /  1017.8hPa SSE 2.9mph /  4.7km/h 6mph /  9.7km/h 44% 0.00in /  0mm 896 W/m2
14:09 77.5 °F /  25.3 °C 53.2 °F /  11.8 °C 30.06in /  1017.8hPa SSE 2.9mph /  4.7km/h 3mph /  4.8km/h 43% 0.00in /  0mm 900 W/m2
14:14 75.7 °F /  24.3 °C 52.9 °F /  11.6 °C 30.06in /  1017.8hPa Calm   5mph /  8km/h 45% 0.00in /  0mm 918 W/m2
14:19 75.9 °F /  24.4 °C 53.1 °F /  11.7 °C 30.06in /  1017.8hPa SSE 2mph /  3.2km/h 5mph /  8km/h 45% 0.00in /  0mm 898 W/m2
14:24 75.2 °F /  24 °C 52.3 °F /  11.3 °C 30.06in /  1017.8hPa SSE 2mph /  3.2km/h 3mph /  4.8km/h 45% 0.00in /  0mm 329 W/m2
14:29 76.1 °F /  24.5 °C 53.8 °F /  12.1 °C 30.05in /  1017.5hPa Calm   1mph /  1.6km/h 46% 0.00in /  0mm 812 W/m2
14:34 77 °F /  25 °C 53.4 °F /  11.9 °C 30.05in /  1017.5hPa SSE 0.9mph /  1.4km/h 5mph /  8km/h 44% 0.00in /  0mm 902 W/m2
14:39 77 °F /  25 °C 54 °F /  12.2 °C 30.05in /  1017.5hPa SE 2mph /  3.2km/h 6mph /  9.7km/h 45% 0.00in /  0mm 900 W/m2
14:44 76.8 °F /  24.9 °C 53.8 °F /  12.1 °C 30.05in /  1017.5hPa SE 0.9mph /  1.4km/h 4mph /  6.4km/h 45% 0.00in /  0mm 218 W/m2
14:49 77.9 °F /  25.5 °C 54.3 °F /  12.4 °C 30.05in /  1017.5hPa SSE 4mph /  6.4km/h 5mph /  8km/h 44% 0.00in /  0mm 241 W/m2
14:54 76.8 °F /  24.9 °C 53.8 °F /  12.1 °C 30.05in /  1017.5hPa SSE 2mph /  3.2km/h 2mph /  3.2km/h 45% 0.00in /  0mm 248 W/m2
14:59 75.9 °F /  24.4 °C 53.6 °F /  12 °C 30.05in /  1017.5hPa SSE 0.9mph /  1.4km/h 3mph /  4.8km/h 46% 0.00in /  0mm 568 W/m2
15:04 75.9 °F /  24.4 °C 53.6 °F /  12 °C 30.05in /  1017.5hPa SSE 2.9mph /  4.7km/h 5mph /  8km/h 46% 0.00in /  0mm 281 W/m2
15:09 75.6 °F /  24.2 °C 53.2 °F /  11.8 °C 30.05in /  1017.5hPa SSE 4.9mph /  7.9km/h 6mph /  9.7km/h 46% 0.00in /  0mm 835 W/m2
15:14 75.2 °F /  24 °C 53.6 °F /  12 °C 30.05in /  1017.5hPa SSE 2mph /  3.2km/h 5mph /  8km/h 47% 0.00in /  0mm 830 W/m2
15:19 76.3 °F /  24.6 °C 54.5 °F /  12.5 °C 30.05in /  1017.5hPa SSE 2.9mph /  4.7km/h 4mph /  6.4km/h 47% 0.00in /  0mm 817 W/m2
15:24 79.9 °F /  26.6 °C 54.7 °F /  12.6 °C 30.05in /  1017.5hPa Calm   4mph /  6.4km/h 42% 0.00in /  0mm 865 W/m2
15:29 78.3 °F /  25.7 °C 53.2 °F /  11.8 °C 30.05in /  1017.5hPa SSW 2.9mph /  4.7km/h 8mph /  12.9km/h 42% 0.00in /  0mm 828 W/m2
15:34 78.3 °F /  25.7 °C 54 °F /  12.2 °C 30.04in /  1017.2hPa SSW 2mph /  3.2km/h 4mph /  6.4km/h 43% 0.00in /  0mm 789 W/m2
15:39 77 °F /  25 °C 53.4 °F /  11.9 °C 30.04in /  1017.2hPa SSE 2mph /  3.2km/h 6mph /  9.7km/h 44% 0.00in /  0mm 812 W/m2
15:44 77.9 °F /  25.5 °C 53.6 °F /  12 °C 30.04in /  1017.2hPa SSE 0.9mph /  1.4km/h 3mph /  4.8km/h 43% 0.00in /  0mm 759 W/m2
15:49 79.2 °F /  26.2 °C 54.7 °F /  12.6 °C 30.04in /  1017.2hPa ESE 2mph /  3.2km/h 3mph /  4.8km/h 43% 0.00in /  0mm 800 W/m2
15:54 79.7 °F /  26.5 °C 54.5 °F /  12.5 °C 30.04in /  1017.2hPa ESE 0.9mph /  1.4km/h 2mph /  3.2km/h 42% 0.00in /  0mm 777 W/m2
15:59 78.1 °F /  25.6 °C 53.1 °F /  11.7 °C 30.04in /  1017.2hPa SSE 4.9mph /  7.9km/h 7mph /  11.3km/h 42% 0.00in /  0mm 793 W/m2
16:04 78.4 °F /  25.8 °C 54.1 °F /  12.3 °C 30.04in /  1017.2hPa SSE 4mph /  6.4km/h 5mph /  8km/h 43% 0.00in /  0mm 807 W/m2
16:09 80.8 °F /  27.1 °C 54.9 °F /  12.7 °C 30.04in /  1017.2hPa ESE 2.9mph /  4.7km/h 4mph /  6.4km/h 41% 0.00in /  0mm 656 W/m2
16:14 80.6 °F /  27 °C 54.7 °F /  12.6 °C 30.04in /  1017.2hPa ESE 0.9mph /  1.4km/h 3mph /  4.8km/h 41% 0.00in /  0mm 691 W/m2
16:19 79.9 °F /  26.6 °C 54.1 °F /  12.3 °C 30.03in /  1016.8hPa Calm   4mph /  6.4km/h 41% 0.00in /  0mm 246 W/m2
16:24 77.9 °F /  25.5 °C 53.6 °F /  12 °C 30.03in /  1016.8hPa Calm   4mph /  6.4km/h 43% 0.00in /  0mm 726 W/m2
16:29 77.5 °F /  25.3 °C 53.2 °F /  11.8 °C 30.03in /  1016.8hPa ESE 6mph /  9.7km/h 6mph /  9.7km/h 43% 0.00in /  0mm 728 W/m2
16:34 77.5 °F /  25.3 °C 53.2 °F /  11.8 °C 30.03in /  1016.8hPa ESE 0.9mph /  1.4km/h 5mph /  8km/h 43% 0.00in /  0mm 756 W/m2
16:39 78.6 °F /  25.9 °C 53.6 °F /  12 °C 30.03in /  1016.8hPa ESE 0.9mph /  1.4km/h 6mph /  9.7km/h 42% 0.00in /  0mm 246 W/m2
16:44 78.8 °F /  26 °C 53.8 °F /  12.1 °C 30.03in /  1016.8hPa Calm   1mph /  1.6km/h 42% 0.00in /  0mm 239 W/m2
16:49 78.4 °F /  25.8 °C 54.1 °F /  12.3 °C 30.03in /  1016.8hPa ESE 2mph /  3.2km/h 3mph /  4.8km/h 43% 0.00in /  0mm 202 W/m2
16:54 78.8 °F /  26 °C 54.5 °F /  12.5 °C 30.03in /  1016.8hPa Calm   2mph /  3.2km/h 43% 0.00in /  0mm 197 W/m2
16:59 79.2 °F /  26.2 °C 54.1 °F /  12.3 °C 30.03in /  1016.8hPa Calm   1mph /  1.6km/h 42% 0.00in /  0mm 169 W/m2
17:04 77.9 °F /  25.5 °C 53.6 °F /  12 °C 30.03in /  1016.8hPa Calm   1mph /  1.6km/h 43% 0.00in /  0mm 146 W/m2
17:09 77.5 °F /  25.3 °C 54.5 °F /  12.5 °C 30.03in /  1016.8hPa Calm   1mph /  1.6km/h 45% 0.00in /  0mm 128 W/m2
17:14 76.8 °F /  24.9 °C 53.8 °F /  12.1 °C 30.03in /  1016.8hPa Calm   4mph /  6.4km/h 45% 0.00in /  0mm 114 W/m2
17:19 76.5 °F /  24.7 °C 56.5 °F /  13.6 °C 30.03in /  1016.8hPa East 7mph /  11.3km/h 7mph /  11.3km/h 50% 0.00in /  0mm 104 W/m2
17:24 74.8 °F /  23.8 °C 57 °F /  13.9 °C 30.03in /  1016.8hPa NW 6mph /  9.7km/h 7mph /  11.3km/h 54% 0.00in /  0mm 97 W/m2
17:29 74.7 °F /  23.7 °C 57.4 °F /  14.1 °C 30.03in /  1016.8hPa NW 4.9mph /  7.9km/h 5mph /  8km/h 55% 0.00in /  0mm 100 W/m2
17:34 74.5 °F /  23.6 °C 57.2 °F /  14 °C 30.03in /  1016.8hPa WNW 4mph /  6.4km/h 8mph /  12.9km/h 55% 0.00in /  0mm 105 W/m2
17:39 74.3 °F /  23.5 °C 57.6 °F /  14.2 °C 30.03in /  1016.8hPa WNW 2.9mph /  4.7km/h 6mph /  9.7km/h 56% 0.00in /  0mm 109 W/m2
17:44 74.3 °F /  23.5 °C 57 °F /  13.9 °C 30.03in /  1016.8hPa WNW 4.9mph /  7.9km/h 8mph /  12.9km/h 55% 0.00in /  0mm 118 W/m2
17:49 74.1 °F /  23.4 °C 56.8 °F /  13.8 °C 30.03in /  1016.8hPa WNW 4mph /  6.4km/h 4mph /  6.4km/h 55% 0.00in /  0mm 127 W/m2
17:54 74.1 °F /  23.4 °C 56.5 °F /  13.6 °C 30.03in /  1016.8hPa WNW 6mph /  9.7km/h 6mph /  9.7km/h 54% 0.00in /  0mm 135 W/m2
17:59 74.1 °F /  23.4 °C 56.8 °F /  13.8 °C 30.03in /  1016.8hPa West 4.9mph /  7.9km/h 8mph /  12.9km/h 55% 0.00in /  0mm 158 W/m2
18:04 74.1 °F /  23.4 °C 56.8 °F /  13.8 °C 30.02in /  1016.5hPa West 2.9mph /  4.7km/h 5mph /  8km/h 55% 0.00in /  0mm 160 W/m2
18:09 74.1 °F /  23.4 °C 56.5 °F /  13.6 °C 30.03in /  1016.8hPa West 4mph /  6.4km/h 7mph /  11.3km/h 54% 0.00in /  0mm 171 W/m2
18:14 74.1 °F /  23.4 °C 56.5 °F /  13.6 °C 30.02in /  1016.5hPa West 2.9mph /  4.7km/h 6mph /  9.7km/h 54% 0.00in /  0mm 172 W/m2
18:19 74.1 °F /  23.4 °C 56.5 °F /  13.6 °C 30.03in /  1016.8hPa West 0.9mph /  1.4km/h 5mph /  8km/h 54% 0.00in /  0mm 183 W/m2
18:24 74.5 °F /  23.6 °C 56.3 °F /  13.5 °C 30.03in /  1016.8hPa West 2.9mph /  4.7km/h 4mph /  6.4km/h 53% 0.00in /  0mm 227 W/m2
18:29 74.1 °F /  23.4 °C 55.9 °F /  13.3 °C 30.03in /  1016.8hPa NW 6mph /  9.7km/h 8mph /  12.9km/h 53% 0.00in /  0mm 360 W/m2
18:34 74.1 °F /  23.4 °C 56.5 °F /  13.6 °C 30.02in /  1016.5hPa NNW 2mph /  3.2km/h 9mph /  14.5km/h 54% 0.00in /  0mm 369 W/m2
18:39 74.7 °F /  23.7 °C 56.5 °F /  13.6 °C 30.02in /  1016.5hPa Calm   5mph /  8km/h 53% 0.00in /  0mm 318 W/m2
18:44 75.2 °F /  24 °C 56.3 °F /  13.5 °C 30.02in /  1016.5hPa NW 2mph /  3.2km/h 5mph /  8km/h 52% 0.00in /  0mm 308 W/m2
18:49 75 °F /  23.9 °C 56.1 °F /  13.4 °C 30.02in /  1016.5hPa NW 2mph /  3.2km/h 7mph /  11.3km/h 52% 0.00in /  0mm 134 W/m2
18:54 74.3 °F /  23.5 °C 55.6 °F /  13.1 °C 30.02in /  1016.5hPa WNW 4mph /  6.4km/h 6mph /  9.7km/h 52% 0.00in /  0mm 151 W/m2
18:59 74.1 °F /  23.4 °C 56.5 °F /  13.6 °C 30.02in /  1016.5hPa WNW 4mph /  6.4km/h 10mph /  16.1km/h 54% 0.00in /  0mm 125 W/m2
19:04 73.8 °F /  23.2 °C 56.7 °F /  13.7 °C 30.02in /  1016.5hPa WNW 4mph /  6.4km/h 8mph /  12.9km/h 55% 0.00in /  0mm 123 W/m2
19:09 73.4 °F /  23 °C 56.3 °F /  13.5 °C 30.02in /  1016.5hPa WNW 2.9mph /  4.7km/h 6mph /  9.7km/h 55% 0.00in /  0mm 120 W/m2
19:14 73.4 °F /  23 °C 56.3 °F /  13.5 °C 30.02in /  1016.5hPa WNW 4mph /  6.4km/h 7mph /  11.3km/h 55% 0.00in /  0mm 100 W/m2
19:19 73.2 °F /  22.9 °C 55.6 °F /  13.1 °C 30.02in /  1016.5hPa West 4.9mph /  7.9km/h 7mph /  11.3km/h 54% 0.00in /  0mm 97 W/m2
19:24 73 °F /  22.8 °C 55.4 °F /  13 °C 30.02in /  1016.5hPa West 4.9mph /  7.9km/h 6mph /  9.7km/h 54% 0.00in /  0mm 77 W/m2
19:29 72.9 °F /  22.7 °C 55.2 °F /  12.9 °C 30.02in /  1016.5hPa West 6.9mph /  11.1km/h 7mph /  11.3km/h 54% 0.00in /  0mm 67 W/m2
19:34 72.7 °F /  22.6 °C 55 °F /  12.8 °C 30.03in /  1016.8hPa WSW 0.9mph /  1.4km/h 7mph /  11.3km/h 54% 0.00in /  0mm 60 W/m2
19:39 72.9 °F /  22.7 °C 55.2 °F /  12.9 °C 30.02in /  1016.5hPa WSW 4mph /  6.4km/h 9mph /  14.5km/h 54% 0.00in /  0mm 60 W/m2
19:44 72.9 °F /  22.7 °C 55.2 °F /  12.9 °C 30.02in /  1016.5hPa West 0.9mph /  1.4km/h 7mph /  11.3km/h 54% 0.00in /  0mm 54 W/m2
19:49 72.9 °F /  22.7 °C 55.2 °F /  12.9 °C 30.02in /  1016.5hPa West 2.9mph /  4.7km/h 9mph /  14.5km/h 54% 0.00in /  0mm 65 W/m2
19:54 72.5 °F /  22.5 °C 54.9 °F /  12.7 °C 30.02in /  1016.5hPa West 4mph /  6.4km/h 7mph /  11.3km/h 54% 0.00in /  0mm 62 W/m2
19:59 72.3 °F /  22.4 °C 54.7 °F /  12.6 °C 30.03in /  1016.8hPa West 4.9mph /  7.9km/h 7mph /  11.3km/h 54% 0.00in /  0mm 56 W/m2
20:04 72.1 °F /  22.3 °C 54.5 °F /  12.5 °C 30.02in /  1016.5hPa West 2mph /  3.2km/h 6mph /  9.7km/h 54% 0.00in /  0mm 49 W/m2
20:09 72.1 °F /  22.3 °C 54.5 °F /  12.5 °C 30.03in /  1016.8hPa West 2mph /  3.2km/h 4mph /  6.4km/h 54% 0.00in /  0mm 53 W/m2
20:14 72 °F /  22.2 °C 54.9 °F /  12.7 °C 30.03in /  1016.8hPa West 4mph /  6.4km/h 5mph /  8km/h 55% 0.00in /  0mm 67 W/m2
20:19 71.6 °F /  22 °C 55 °F /  12.8 °C 30.03in /  1016.8hPa West 4mph /  6.4km/h 8mph /  12.9km/h 56% 0.00in /  0mm 60 W/m2
20:24 71.4 °F /  21.9 °C 55.9 °F /  13.3 °C 30.03in /  1016.8hPa West 4.9mph /  7.9km/h 7mph /  11.3km/h 58% 0.00in /  0mm 53 W/m2
20:29 71.1 °F /  21.7 °C 56.8 °F /  13.8 °C 30.03in /  1016.8hPa WSW 11mph /  17.7km/h 11mph /  17.7km/h 61% 0.00in /  0mm 46 W/m2
20:34 70.7 °F /  21.5 °C 57 °F /  13.9 °C 30.03in /  1016.8hPa West 4.9mph /  7.9km/h 7mph /  11.3km/h 62% 0.00in /  0mm 35 W/m2
20:39 70.3 °F /  21.3 °C 57.2 °F /  14 °C 30.03in /  1016.8hPa WSW 8.1mph /  13km/h 8mph /  12.9km/h 63% 0.00in /  0mm 28 W/m2
20:44 69.8 °F /  21 °C 57.9 °F /  14.4 °C 30.03in /  1016.8hPa WSW 4.9mph /  7.9km/h 7mph /  11.3km/h 66% 0.00in /  0mm 25 W/m2
20:49 69.3 °F /  20.7 °C 58.3 °F /  14.6 °C 30.03in /  1016.8hPa WSW 2.9mph /  4.7km/h 9mph /  14.5km/h 68% 0.00in /  0mm 18 W/m2
20:54 68.7 °F /  20.4 °C 58.1 °F /  14.5 °C 30.03in /  1016.8hPa WSW 0.9mph /  1.4km/h 4mph /  6.4km/h 69% 0.00in /  0mm 14 W/m2
20:59 68.7 °F /  20.4 °C 58.1 °F /  14.5 °C 30.03in /  1016.8hPa WSW 4mph /  6.4km/h 4mph /  6.4km/h 69% 0.00in /  0mm 11 W/m2
21:04 68.4 °F /  20.2 °C 58.3 °F /  14.6 °C 30.03in /  1016.8hPa Calm   4mph /  6.4km/h 70% 0.00in /  0mm 9 W/m2
21:09 68.2 °F /  20.1 °C 58.1 °F /  14.5 °C 30.03in /  1016.8hPa WSW 2.9mph /  4.7km/h 4mph /  6.4km/h 70% 0.00in /  0mm 7 W/m2
21:14 67.6 °F /  19.8 °C 57.9 °F /  14.4 °C 30.04in /  1017.2hPa WSW 6mph /  9.7km/h 6mph /  9.7km/h 71% 0.00in /  0mm 0 W/m2
21:19 67.5 °F /  19.7 °C 57.7 °F /  14.3 °C 30.04in /  1017.2hPa WSW 2mph /  3.2km/h 4mph /  6.4km/h 71% 0.00in /  0mm 0 W/m2
21:24 66.9 °F /  19.4 °C 57.2 °F /  14 °C 30.04in /  1017.2hPa WSW 0.9mph /  1.4km/h 4mph /  6.4km/h 71% 0.00in /  0mm 0 W/m2
21:27 66.7 °F /  19.3 °C 57 °F /  13.9 °C 30.04in /  1017.2hPa WSW 2.9mph /  4.7km/h 3mph /  4.8km/h 71% 0.00in /  0mm 0 W/m2
21:34 66.4 °F /  19.1 °C 57 °F /  13.9 °C 30.05in /  1017.5hPa WSW 0.9mph /  1.4km/h 2mph /  3.2km/h 72% 0.00in /  0mm 0 W/m2
21:39 66.2 °F /  19 °C 56.8 °F /  13.8 °C 30.05in /  1017.5hPa WSW 8mph /  12.9km/h 8mph /  12.9km/h 72% 0.00in /  0mm 0 W/m2
21:44 66 °F /  18.9 °C 56.7 °F /  13.7 °C 30.05in /  1017.5hPa WSW 0.9mph /  1.4km/h 5mph /  8km/h 72% 0.00in /  0mm 0 W/m2
21:49 66 °F /  18.9 °C 56.7 °F /  13.7 °C 30.05in /  1017.5hPa WSW 2mph /  3.2km/h 4mph /  6.4km/h 72% 0.00in /  0mm 0 W/m2
21:54 65.7 °F /  18.7 °C 56.3 °F /  13.5 °C 30.05in /  1017.5hPa WSW 4mph /  6.4km/h 4mph /  6.4km/h 72% 0.00in /  0mm 0 W/m2
21:59 65.7 °F /  18.7 °C 56.3 °F /  13.5 °C 30.05in /  1017.5hPa WSW 0.5mph /  0.8km/h 2mph /  3.2km/h 72% 0.00in /  0mm 0 W/m2
22:02 65.3 °F /  18.5 °C 56.1 °F /  13.4 °C 30.05in /  1017.5hPa WSW 0.9mph /  1.4km/h 4mph /  6.4km/h 72% 0.00in /  0mm 0 W/m2
22:06 65.3 °F /  18.5 °C 56.5 °F /  13.6 °C 30.05in /  1017.5hPa WSW 2.9mph /  4.7km/h 4mph /  6.4km/h 73% 0.00in /  0mm 0 W/m2
22:14 65 °F /  18.3 °C 56 °F /  13.3 °C 30.05in /  1017.5hPa WSW 1mph /  1.6km/h 4mph /  6.4km/h 72.5% 0.00in /  0mm 0 W/m2
22:19 64.4 °F /  18 °C 55.6 °F /  13.1 °C 30.05in /  1017.5hPa WSW 4mph /  6.4km/h 6mph /  9.7km/h 73% 0.00in /  0mm 0 W/m2
22:24 64.2 °F /  17.9 °C 55.4 °F /  13 °C 30.05in /  1017.5hPa WSW 2mph /  3.2km/h 5mph /  8km/h 73% 0.00in /  0mm 0 W/m2
22:29 64 °F /  17.8 °C 55.6 °F /  13.1 °C 30.05in /  1017.5hPa WSW 2mph /  3.2km/h 3mph /  4.8km/h 74% 0.00in /  0mm 0 W/m2
22:35 63.7 °F /  17.6 °C 55.2 °F /  12.9 °C 30.05in /  1017.5hPa WSW 2mph /  3.2km/h 3mph /  4.8km/h 74% 0.00in /  0mm 0 W/m2
22:46 63.3 °F /  17.4 °C 54.9 °F /  12.7 °C 30.05in /  1017.5hPa Calm   3mph /  4.8km/h 74% 0.00in /  0mm 0 W/m2
22:54 63 °F /  17.2 °C 54.5 °F /  12.5 °C 30.05in /  1017.5hPa West 4mph /  6.4km/h 9mph /  14.5km/h 74% 0.00in /  0mm 0 W/m2
22:58 63.1 °F /  17.3 °C 54.7 °F /  12.6 °C 30.05in /  1017.5hPa West 4.9mph /  7.9km/h 7mph /  11.3km/h 74% 0.00in /  0mm 0 W/m2
23:04 63.1 °F /  17.3 °C 54.7 °F /  12.6 °C 30.05in /  1017.5hPa West 2.9mph /  4.7km/h 7mph /  11.3km/h 74% 0.00in /  0mm 0 W/m2
23:09 63 °F /  17.2 °C 54.5 °F /  12.5 °C 30.05in /  1017.5hPa West 6mph /  9.7km/h 6mph /  9.7km/h 74% 0.00in /  0mm 0 W/m2
23:14 63 °F /  17.2 °C 54.5 °F /  12.5 °C 30.05in /  1017.5hPa West 2.9mph /  4.7km/h 5mph /  8km/h 74% 0.00in /  0mm 0 W/m2
23:19 62.8 °F /  17.1 °C 54.7 °F /  12.6 °C 30.05in /  1017.5hPa West 2.9mph /  4.7km/h 4mph /  6.4km/h 75% 0.00in /  0mm 0 W/m2
23:24 62.6 °F /  17 °C 54.5 °F /  12.5 °C 30.05in /  1017.5hPa West 2mph /  3.2km/h 4mph /  6.4km/h 75% 0.00in /  0mm 0 W/m2
23:29 62.6 °F /  17 °C 54.5 °F /  12.5 °C 30.05in /  1017.5hPa West 2.9mph /  4.7km/h 4mph /  6.4km/h 75% 0.00in /  0mm 0 W/m2
23:34 62.4 °F /  16.9 °C 54.3 °F /  12.4 °C 30.05in /  1017.5hPa Calm   6mph /  9.7km/h 75% 0.00in /  0mm 0 W/m2
23:39 62.4 °F /  16.9 °C 54.3 °F /  12.4 °C 30.05in /  1017.5hPa West 0.9mph /  1.4km/h 2mph /  3.2km/h 75% 0.00in /  0mm 0 W/m2
23:44 62.2 °F /  16.8 °C 54.5 °F /  12.5 °C 30.05in /  1017.5hPa Calm     76% 0.00in /  0mm 0 W/m2
23:49 62.2 °F /  16.8 °C 54.5 °F /  12.5 °C 30.05in /  1017.5hPa Calm     76% 0.00in /  0mm 0 W/m2
23:54 62.2 °F /  16.8 °C 54.9 °F /  12.7 °C 30.05in /  1017.5hPa Calm     77% 0.00in /  0mm 0 W/m2
23:59 62.1 °F /  16.7 °C 54.7 °F /  12.6 °C 30.05in /  1017.5hPa Calm     77% 0.00in /  0mm 0 W/m2
Bath Spa Weather
Compliments of Weather Underground - 2 mb